TimePST,TemperatureF,Dew PointF,Humidity,Sea Level PressureIn,VisibilityMPH,Wind Direction,Wind SpeedMPH,Gust SpeedMPH,PrecipitationIn,Events,Conditions,WindDirDegrees,DateUTC
12:53 AM,43.0,39.9,89,29.98,10.0,Calm,Calm,-,N/A,,Clear,0,2012-11-26 08:53:00
1:53 AM,42.1,39.9,92,29.99,10.0,Calm,Calm,-,N/A,,Clear,0,2012-11-26 09:53:00
2:53 AM,39.9,37.9,93,30.00,10.0,East,3.5,-,N/A,,Clear,80,2012-11-26 10:53:00
3:53 AM,39.9,37.9,93,30.01,10.0,Calm,Calm,-,N/A,,Clear,0,2012-11-26 11:53:00
4:53 AM,39.9,37.9,93,30.01,10.0,Calm,Calm,-,N/A,,Clear,0,2012-11-26 12:53:00
5:53 AM,39.9,37.9,93,30.02,10.0,Calm,Calm,-,N/A,,Clear,0,2012-11-26 13:53:00
6:53 AM,39.9,37.0,89,30.04,10.0,Calm,Calm,-,N/A,,Clear,0,2012-11-26 14:53:00
7:53 AM,42.1,37.9,85,30.04,10.0,Calm,Calm,-,N/A,,Clear,0,2012-11-26 15:53:00
8:53 AM,46.9,41.0,80,30.05,10.0,Calm,Calm,-,N/A,,Clear,0,2012-11-26 16:53:00
9:53 AM,52.0,42.1,69,30.05,10.0,Calm,Calm,-,N/A,,Clear,0,2012-11-26 17:53:00
10:53 AM,57.9,43.0,58,30.05,10.0,Calm,Calm,-,N/A,,Clear,0,2012-11-26 18:53:00
11:53 AM,64.9,46.0,50,30.02,10.0,ENE,4.6,-,N/A,,Clear,70,2012-11-26 19:53:00
12:53 PM,64.9,45.0,48,30.00,10.0,ENE,6.9,-,N/A,,Clear,70,2012-11-26 20:53:00
1:53 PM,64.9,45.0,48,30.00,10.0,ENE,9.2,-,N/A,,Clear,60,2012-11-26 21:53:00
2:53 PM,64.9,46.0,50,30.00,10.0,ENE,6.9,-,N/A,,Clear,70,2012-11-26 22:53:00
3:53 PM,63.0,46.0,54,30.00,10.0,ENE,9.2,-,N/A,,Clear,60,2012-11-26 23:53:00
4:53 PM,59.0,46.9,64,30.01,10.0,NE,8.1,-,N/A,,Clear,50,2012-11-27 00:53:00
5:53 PM,55.0,46.9,74,30.02,10.0,Calm,Calm,-,N/A,,Clear,0,2012-11-27 01:53:00
6:53 PM,52.0,46.0,80,30.03,7.0,ENE,3.5,-,N/A,,Clear,60,2012-11-27 02:53:00
7:53 PM,51.1,46.0,83,30.05,7.0,Calm,Calm,-,N/A,,Clear,0,2012-11-27 03:53:00
9:53 PM,46.0,43.0,89,30.07,5.0,Calm,Calm,-,N/A,,Clear,0,2012-11-27 05:53:00
10:53 PM,46.9,44.1,90,30.07,5.0,Calm,Calm,-,N/A,,Clear,0,2012-11-27 06:53:00
11:53 PM,46.0,43.0,89,30.08,4.0,Calm,Calm,-,N/A,,Clear,0,2012-11-27 07:53:00